Columbia — WDD6400 — position and weather

sailwx.info

Track history (hours):
 
Tides and Currents Weather Stations Pressure Air Temp Water Temp Dewpoint Dewpoint Depression Visibility Wind Speed Wind Dir Waves Ship Positions

Columbia

Owner: OSG Ship Management Inc., Tampa, FL. More information available from US FCC via Universal Licensing System and Coast Guard Vessel Documentation Center.

Last reported at 2016-Apr-29 17:30 UTC. Time now 2016-Apr-29 23:32 UTC.
Position N 27°47' W 082°31'.

Length 194 m; draft 9.3 m.

Type: Towing. MMSI: 367172440.

Date/timePositionNaut miles runAvg speedWind from/ knotsBaromVisibWave heightAir tempDewpointWater temp
2016-Apr-29 17:30N 27°47' W 082°31'8 8.6
2016-Apr-29 16:33N 27°55' W 082°27'1 1.4
2016-Apr-29 15:33N 27°56' W 082°27'1 1.2
2016-Apr-29 14:33N 27°55' W 082°26'0 0.0
2016-Apr-29 13:33N 27°55' W 082°26'0 0.0
2016-Apr-29 12:33N 27°55' W 082°26'0 0.0
2016-Apr-29 11:33N 27°55' W 082°26'0 0.0
2016-Apr-29 10:33N 27°55' W 082°26'0 0.0
2016-Apr-29 09:33N 27°55' W 082°26'0 0.0
2016-Apr-29 08:33N 27°55' W 082°26'0 0.0
2016-Apr-29 07:33N 27°55' W 082°26'0 0.0
2016-Apr-29 06:33N 27°55' W 082°26'0 0.0
2016-Apr-29 05:33N 27°55' W 082°26'0 0.0
2016-Apr-29 04:33N 27°55' W 082°26'0 0.0
2016-Apr-29 03:33N 27°55' W 082°26'0 0.0
2016-Apr-29 02:33N 27°55' W 082°26'0 0.0
2016-Apr-29 01:33N 27°55' W 082°26'0 0.0
2016-Apr-29 00:33N 27°55' W 082°26'0 0.0
2016-Apr-28 23:33N 27°55' W 082°26'0 0.0
2016-Apr-28 22:33N 27°55' W 082°26'0 0.0
2016-Apr-28 21:33N 27°55' W 082°26'0 0.0
2016-Apr-28 20:33N 27°55' W 082°26'0 0.0
2016-Apr-28 19:33N 27°55' W 082°26'0 0.0
2016-Apr-28 18:33N 27°55' W 082°26'0 0.0
2016-Apr-28 17:33N 27°55' W 082°26'0 0.0
2016-Apr-28 16:33N 27°55' W 082°26'0 0.0
2016-Apr-28 15:33N 27°55' W 082°26'0 0.0
2016-Apr-28 14:33N 27°55' W 082°26'0 0.0
2016-Apr-28 13:33N 27°55' W 082°26'0 0.0
2016-Apr-28 12:33N 27°55' W 082°26'1 0.9
2016-Apr-28 11:33N 27°55' W 082°26'1 1.4
2016-Apr-28 10:33N 27°56' W 082°27'1 1.2
2016-Apr-28 09:33N 27°55' W 082°27'7 7.4
2016-Apr-28 08:33N 27°48' W 082°29'9 8.8
2016-Apr-28 07:33N 27°41' W 082°35'19 8.8
2016-Apr-28 05:25N 27°36' W 082°56'12 6.4
2016-Apr-28 03:33N 27°36' W 083°09'  
2016-Apr-25 05:32N 29°48' W 093°21'9 9.1
2016-Apr-25 04:33N 29°56' W 093°20'7 7.3
2016-Apr-25 03:33N 30°04' W 093°20'6 5.9
2016-Apr-25 02:33N 30°10' W 093°19'1 1.0
2016-Apr-25 01:33N 30°11' W 093°19'0 0.0
2016-Apr-25 00:33N 30°11' W 093°19'0 0.0
2016-Apr-24 23:33N 30°11' W 093°19'0 0.0
2016-Apr-24 22:33N 30°11' W 093°19'0 0.0
2016-Apr-24 21:33N 30°11' W 093°19'0 0.0
2016-Apr-24 20:33N 30°11' W 093°19'0 0.0
2016-Apr-24 19:33N 30°11' W 093°19'0 0.0
2016-Apr-24 18:33N 30°11' W 093°19'0 0.0
2016-Apr-24 17:33N 30°11' W 093°19'0 0.0
2016-Apr-24 16:33N 30°11' W 093°19'0 0.0
2016-Apr-24 15:33N 30°11' W 093°19'0 0.0
2016-Apr-24 14:33N 30°11' W 093°19'0 0.0
2016-Apr-24 13:33N 30°11' W 093°19'0 0.0
2016-Apr-24 12:33N 30°11' W 093°19'0 0.0
2016-Apr-24 11:34N 30°11' W 093°19'0 0.0
2016-Apr-24 10:33N 30°11' W 093°19'0 0.0
2016-Apr-24 09:33N 30°11' W 093°19'0 0.0
2016-Apr-24 08:33N 30°11' W 093°19'0 0.0
2016-Apr-24 07:33N 30°11' W 093°19'0 0.0
2016-Apr-24 06:33N 30°11' W 093°19'0 0.0
2016-Apr-24 05:33N 30°11' W 093°19'0 0.0
2016-Apr-24 04:33N 30°11' W 093°19'0 0.0
2016-Apr-24 03:33N 30°11' W 093°19'0 0.0
2016-Apr-24 02:33N 30°11' W 093°19'0 0.0
2016-Apr-24 01:33N 30°11' W 093°19'0 0.0
2016-Apr-24 00:34N 30°11' W 093°19'0 0.0
2016-Apr-23 23:33N 30°11' W 093°19'0 0.0
2016-Apr-23 22:33N 30°11' W 093°19'0 0.0
2016-Apr-23 21:34N 30°11' W 093°19'0 0.0
2016-Apr-23 20:33N 30°11' W 093°19'0 0.0
2016-Apr-23 19:34N 30°11' W 093°19'0 0.0
2016-Apr-23 18:33N 30°11' W 093°19'0 0.0
2016-Apr-23 17:33N 30°11' W 093°19'0 0.0
2016-Apr-23 16:33N 30°11' W 093°19'0 0.0
2016-Apr-23 15:33N 30°11' W 093°19'0 0.0
2016-Apr-23 14:33N 30°11' W 093°19'0 0.0
2016-Apr-23 13:30N 30°11' W 093°19'0 0.0
2016-Apr-23 12:33N 30°11' W 093°19'1 0.7
2016-Apr-23 11:33N 30°10' W 093°19'5 4.8
2016-Apr-23 10:33N 30°05' W 093°20'8 7.6
2016-Apr-23 09:33N 29°58' W 093°20'9 9.4
2016-Apr-23 08:33N 29°48' W 093°21'8 7.9
2016-Apr-23 07:34N 29°40' W 093°20'2 2.1
2016-Apr-23 06:33N 29°39' W 093°18'0 0.0
2016-Apr-23 05:33N 29°39' W 093°18'0 0.0
2016-Apr-23 04:33N 29°39' W 093°18'0 0.0
2016-Apr-23 03:33N 29°39' W 093°18'0 0.0
2016-Apr-23 02:33N 29°39' W 093°18'0 0.0
2016-Apr-23 01:33N 29°39' W 093°18'0 0.0
2016-Apr-23 00:33N 29°39' W 093°18'0 0.0
2016-Apr-22 23:33N 29°39' W 093°18'  
Track history (hours):
 
Tides and Currents Weather Stations Pressure Air Temp Water Temp Dewpoint Dewpoint Depression Visibility Wind Speed Wind Dir Waves Ship Positions

Columbia

Owner: OSG Ship Management Inc., Tampa, FL. More information available from US FCC via Universal Licensing System and Coast Guard Vessel Documentation Center.

Last reported at 2016-Apr-29 17:30 UTC. Time now 2016-Apr-29 23:32 UTC.
Position N 27°47' W 082°31'.

Length 194 m; draft 9.3 m.

Type: Towing. MMSI: 367172440.

Date/timePositionNaut miles runAvg speedWind from/ knotsBaromVisibWave heightAir tempDewpointWater temp
2016-Apr-29 17:30N 27°47' W 082°31'8 8.6
2016-Apr-29 16:33N 27°55' W 082°27'1 1.4
2016-Apr-29 15:33N 27°56' W 082°27'1 1.2
2016-Apr-29 14:33N 27°55' W 082°26'0 0.0
2016-Apr-29 13:33N 27°55' W 082°26'0 0.0
2016-Apr-29 12:33N 27°55' W 082°26'0 0.0
2016-Apr-29 11:33N 27°55' W 082°26'0 0.0
2016-Apr-29 10:33N 27°55' W 082°26'0 0.0
2016-Apr-29 09:33N 27°55' W 082°26'0 0.0
2016-Apr-29 08:33N 27°55' W 082°26'0 0.0
2016-Apr-29 07:33N 27°55' W 082°26'0 0.0
2016-Apr-29 06:33N 27°55' W 082°26'0 0.0
2016-Apr-29 05:33N 27°55' W 082°26'0 0.0
2016-Apr-29 04:33N 27°55' W 082°26'0 0.0
2016-Apr-29 03:33N 27°55' W 082°26'0 0.0
2016-Apr-29 02:33N 27°55' W 082°26'0 0.0
2016-Apr-29 01:33N 27°55' W 082°26'0 0.0
2016-Apr-29 00:33N 27°55' W 082°26'0 0.0
2016-Apr-28 23:33N 27°55' W 082°26'0 0.0
2016-Apr-28 22:33N 27°55' W 082°26'0 0.0
2016-Apr-28 21:33N 27°55' W 082°26'0 0.0
2016-Apr-28 20:33N 27°55' W 082°26'0 0.0
2016-Apr-28 19:33N 27°55' W 082°26'0 0.0
2016-Apr-28 18:33N 27°55' W 082°26'0 0.0
2016-Apr-28 17:33N 27°55' W 082°26'0 0.0
2016-Apr-28 16:33N 27°55' W 082°26'0 0.0
2016-Apr-28 15:33N 27°55' W 082°26'0 0.0
2016-Apr-28 14:33N 27°55' W 082°26'0 0.0
2016-Apr-28 13:33N 27°55' W 082°26'0 0.0
2016-Apr-28 12:33N 27°55' W 082°26'1 0.9
2016-Apr-28 11:33N 27°55' W 082°26'1 1.4
2016-Apr-28 10:33N 27°56' W 082°27'1 1.2
2016-Apr-28 09:33N 27°55' W 082°27'7 7.4
2016-Apr-28 08:33N 27°48' W 082°29'9 8.8
2016-Apr-28 07:33N 27°41' W 082°35'19 8.8
2016-Apr-28 05:25N 27°36' W 082°56'12 6.4
2016-Apr-28 03:33N 27°36' W 083°09'  
2016-Apr-25 05:32N 29°48' W 093°21'9 9.1
2016-Apr-25 04:33N 29°56' W 093°20'7 7.3
2016-Apr-25 03:33N 30°04' W 093°20'6 5.9
2016-Apr-25 02:33N 30°10' W 093°19'1 1.0
2016-Apr-25 01:33N 30°11' W 093°19'0 0.0
2016-Apr-25 00:33N 30°11' W 093°19'0 0.0
2016-Apr-24 23:33N 30°11' W 093°19'0 0.0
2016-Apr-24 22:33N 30°11' W 093°19'0 0.0
2016-Apr-24 21:33N 30°11' W 093°19'0 0.0
2016-Apr-24 20:33N 30°11' W 093°19'0 0.0
2016-Apr-24 19:33N 30°11' W 093°19'0 0.0
2016-Apr-24 18:33N 30°11' W 093°19'0 0.0
2016-Apr-24 17:33N 30°11' W 093°19'0 0.0
2016-Apr-24 16:33N 30°11' W 093°19'0 0.0
2016-Apr-24 15:33N 30°11' W 093°19'0 0.0
2016-Apr-24 14:33N 30°11' W 093°19'0 0.0
2016-Apr-24 13:33N 30°11' W 093°19'0 0.0
2016-Apr-24 12:33N 30°11' W 093°19'0 0.0
2016-Apr-24 11:34N 30°11' W 093°19'0 0.0
2016-Apr-24 10:33N 30°11' W 093°19'0 0.0
2016-Apr-24 09:33N 30°11' W 093°19'0 0.0
2016-Apr-24 08:33N 30°11' W 093°19'0 0.0
2016-Apr-24 07:33N 30°11' W 093°19'0 0.0
2016-Apr-24 06:33N 30°11' W 093°19'0 0.0
2016-Apr-24 05:33N 30°11' W 093°19'0 0.0
2016-Apr-24 04:33N 30°11' W 093°19'0 0.0
2016-Apr-24 03:33N 30°11' W 093°19'0 0.0
2016-Apr-24 02:33N 30°11' W 093°19'0 0.0
2016-Apr-24 01:33N 30°11' W 093°19'0 0.0
2016-Apr-24 00:34N 30°11' W 093°19'0 0.0
2016-Apr-23 23:33N 30°11' W 093°19'0 0.0
2016-Apr-23 22:33N 30°11' W 093°19'0 0.0
2016-Apr-23 21:34N 30°11' W 093°19'0 0.0
2016-Apr-23 20:33N 30°11' W 093°19'0 0.0
2016-Apr-23 19:34N 30°11' W 093°19'0 0.0
2016-Apr-23 18:33N 30°11' W 093°19'0 0.0
2016-Apr-23 17:33N 30°11' W 093°19'0 0.0
2016-Apr-23 16:33N 30°11' W 093°19'0 0.0
2016-Apr-23 15:33N 30°11' W 093°19'0 0.0
2016-Apr-23 14:33N 30°11' W 093°19'0 0.0
2016-Apr-23 13:30N 30°11' W 093°19'0 0.0
2016-Apr-23 12:33N 30°11' W 093°19'1 0.7
2016-Apr-23 11:33N 30°10' W 093°19'5 4.8
2016-Apr-23 10:33N 30°05' W 093°20'8 7.6
2016-Apr-23 09:33N 29°58' W 093°20'9 9.4
2016-Apr-23 08:33N 29°48' W 093°21'8 7.9
2016-Apr-23 07:34N 29°40' W 093°20'2 2.1
2016-Apr-23 06:33N 29°39' W 093°18'0 0.0
2016-Apr-23 05:33N 29°39' W 093°18'0 0.0
2016-Apr-23 04:33N 29°39' W 093°18'0 0.0
2016-Apr-23 03:33N 29°39' W 093°18'0 0.0
2016-Apr-23 02:33N 29°39' W 093°18'0 0.0
2016-Apr-23 01:33N 29°39' W 093°18'0 0.0
2016-Apr-23 00:33N 29°39' W 093°18'0 0.0
2016-Apr-22 23:33N 29°39' W 093°18'  

Dump ship's entire track history